sensor_id;sensor_type;location;lat;lon;timestamp;temperature;humidity
66094;DHT22;52876;49.394;10.892;2022-10-30T01:46:40;14.60;99.90
66094;DHT22;52876;49.394;10.892;2022-10-30T02:11:42;14.30;99.90
66094;DHT22;52876;49.394;10.892;2022-10-30T02:14:09;14.20;99.90
66094;DHT22;52876;49.394;10.892;2022-10-30T02:16:40;14.10;99.90
66094;DHT22;52876;49.394;10.892;2022-10-30T04:36:06;12.80;99.90
66094;DHT22;52876;49.394;10.892;2022-10-30T04:38:33;13.60;99.90
66094;DHT22;52876;49.394;10.892;2022-10-30T09:52:55;19.40;99.90
66094;DHT22;52876;49.394;10.892;2022-10-30T09:55:32;19.60;99.90
66094;DHT22;52876;49.394;10.892;2022-10-30T09:58:06;19.80;99.90
66094;DHT22;52876;49.394;10.892;2022-10-30T10:00:38;19.90;99.90
66094;DHT22;52876;49.394;10.892;2022-10-30T10:03:18;21.00;99.90
66094;DHT22;52876;49.394;10.892;2022-10-30T10:05:50;19.80;99.90
66094;DHT22;52876;49.394;10.892;2022-10-30T10:08:19;19.60;99.90
66094;DHT22;52876;49.394;10.892;2022-10-30T10:10:51;19.70;99.90
66094;DHT22;52876;49.394;10.892;2022-10-30T10:13:28;19.80;99.90
66094;DHT22;52876;49.394;10.892;2022-10-30T10:15:58;19.90;99.90
66094;DHT22;52876;49.394;10.892;2022-10-30T10:18:32;20.00;99.90
66094;DHT22;52876;49.394;10.892;2022-10-30T10:21:08;20.00;99.90
66094;DHT22;52876;49.394;10.892;2022-10-30T10:23:43;20.30;99.90
66094;DHT22;52876;49.394;10.892;2022-10-30T10:26:22;21.50;99.90
66094;DHT22;52876;49.394;10.892;2022-10-30T10:28:59;20.60;99.90
66094;DHT22;52876;49.394;10.892;2022-10-30T10:31:39;21.60;99.90
66094;DHT22;52876;49.394;10.892;2022-10-30T10:34:30;21.50;99.90
66094;DHT22;52876;49.394;10.892;2022-10-30T10:37:08;21.60;99.90
66094;DHT22;52876;49.394;10.892;2022-10-30T10:39:51;22.00;99.90
66094;DHT22;52876;49.394;10.892;2022-10-30T10:42:31;22.50;99.90
66094;DHT22;52876;49.394;10.892;2022-10-30T10:45:11;23.10;99.90
66094;DHT22;52876;49.394;10.892;2022-10-30T10:48:28;23.20;99.90
66094;DHT22;52876;49.394;10.892;2022-10-30T10:51:03;24.00;99.90
66094;DHT22;52876;49.394;10.892;2022-10-30T10:53:39;24.70;99.90
66094;DHT22;52876;49.394;10.892;2022-10-30T11:06:20;27.10;99.90
66094;DHT22;52876;49.394;10.892;2022-10-30T11:08:48;26.10;99.90
66094;DHT22;52876;49.394;10.892;2022-10-30T11:13:42;27.90;99.90
66094;DHT22;52876;49.394;10.892;2022-10-30T11:16:20;25.90;99.90
66094;DHT22;52876;49.394;10.892;2022-10-30T11:18:53;26.50;99.90
66094;DHT22;52876;49.394;10.892;2022-10-30T11:21:23;27.60;99.90
66094;DHT22;52876;49.394;10.892;2022-10-30T11:28:55;27.90;99.90
66094;DHT22;52876;49.394;10.892;2022-10-30T14:49:58;24.20;99.90
66094;DHT22;52876;49.394;10.892;2022-10-30T14:52:33;23.80;99.90
66094;DHT22;52876;49.394;10.892;2022-10-30T14:55:19;23.50;99.90
66094;DHT22;52876;49.394;10.892;2022-10-30T14:57:51;23.20;99.90
66094;DHT22;52876;49.394;10.892;2022-10-30T15:00:38;23.00;99.90
66094;DHT22;52876;49.394;10.892;2022-10-30T15:03:08;23.00;99.90
66094;DHT22;52876;49.394;10.892;2022-10-30T15:05:45;22.70;99.90
66094;DHT22;52876;49.394;10.892;2022-10-30T15:08:32;22.60;99.90
66094;DHT22;52876;49.394;10.892;2022-10-30T15:11:17;22.70;99.90
66094;DHT22;52876;49.394;10.892;2022-10-30T15:13:47;22.40;99.90
66094;DHT22;52876;49.394;10.892;2022-10-30T15:16:18;22.10;99.90
66094;DHT22;52876;49.394;10.892;2022-10-30T15:18:45;22.00;99.90
66094;DHT22;52876;49.394;10.892;2022-10-30T15:21:18;22.00;99.90
66094;DHT22;52876;49.394;10.892;2022-10-30T15:26:18;21.50;99.90
66094;DHT22;52876;49.394;10.892;2022-10-30T15:28:48;21.30;99.90
66094;DHT22;52876;49.394;10.892;2022-10-30T15:31:21;21.00;99.90
66094;DHT22;52876;49.394;10.892;2022-10-30T15:36:16;20.80;99.90
66094;DHT22;52876;49.394;10.892;2022-10-30T15:41:08;20.30;99.90
66094;DHT22;52876;49.394;10.892;2022-10-30T15:43:39;20.10;99.90
66094;DHT22;52876;49.394;10.892;2022-10-30T15:46:10;19.90;99.90
66094;DHT22;52876;49.394;10.892;2022-10-30T15:48:38;19.80;99.90
66094;DHT22;52876;49.394;10.892;2022-10-30T15:51:06;20.00;99.90
66094;DHT22;52876;49.394;10.892;2022-10-30T15:53:38;19.40;99.90
66094;DHT22;52876;49.394;10.892;2022-10-30T15:56:06;19.40;99.90
66094;DHT22;52876;49.394;10.892;2022-10-30T15:58:39;19.20;99.90
66094;DHT22;52876;49.394;10.892;2022-10-30T16:01:23;19.20;99.90
66094;DHT22;52876;49.394;10.892;2022-10-30T16:03:50;19.00;99.90
66094;DHT22;52876;49.394;10.892;2022-10-30T16:08:45;18.70;99.90
66094;DHT22;52876;49.394;10.892;2022-10-30T16:13:41;18.70;99.90
66094;DHT22;52876;49.394;10.892;2022-10-30T16:16:12;18.50;99.90
66094;DHT22;52876;49.394;10.892;2022-10-30T16:18:39;18.40;99.90
66094;DHT22;52876;49.394;10.892;2022-10-30T16:21:07;18.40;99.90
66094;DHT22;52876;49.394;10.892;2022-10-30T16:23:37;18.50;99.90
66094;DHT22;52876;49.394;10.892;2022-10-30T16:28:32;18.10;99.90
66094;DHT22;52876;49.394;10.892;2022-10-30T16:31:00;18.00;99.90
66094;DHT22;52876;49.394;10.892;2022-10-30T16:33:28;17.90;99.90
66094;DHT22;52876;49.394;10.892;2022-10-30T16:35:57;17.90;99.90
66094;DHT22;52876;49.394;10.892;2022-10-30T16:38:23;17.80;99.90
66094;DHT22;52876;49.394;10.892;2022-10-30T16:40:52;17.30;99.90
66094;DHT22;52876;49.394;10.892;2022-10-30T16:43:24;17.60;99.90
66094;DHT22;52876;49.394;10.892;2022-10-30T16:45:53;17.60;99.90
66094;DHT22;52876;49.394;10.892;2022-10-30T16:48:24;17.50;99.90
66094;DHT22;52876;49.394;10.892;2022-10-30T16:53:21;17.30;99.90
66094;DHT22;52876;49.394;10.892;2022-10-30T16:55:49;17.40;99.90
66094;DHT22;52876;49.394;10.892;2022-10-30T16:58:16;17.50;99.90
66094;DHT22;52876;49.394;10.892;2022-10-30T17:00:49;17.40;99.90
66094;DHT22;52876;49.394;10.892;2022-10-30T17:03:19;17.50;99.90
66094;DHT22;52876;49.394;10.892;2022-10-30T17:05:56;17.30;99.90
66094;DHT22;52876;49.394;10.892;2022-10-30T17:08:33;17.30;99.90
66094;DHT22;52876;49.394;10.892;2022-10-30T17:11:03;17.30;99.90
66094;DHT22;52876;49.394;10.892;2022-10-30T17:13:31;17.20;99.90
66094;DHT22;52876;49.394;10.892;2022-10-30T17:16:12;17.10;99.90
66094;DHT22;52876;49.394;10.892;2022-10-30T17:21:10;17.00;99.90
66094;DHT22;52876;49.394;10.892;2022-10-30T17:26:10;17.00;99.90
66094;DHT22;52876;49.394;10.892;2022-10-30T17:28:36;17.00;99.90
66094;DHT22;52876;49.394;10.892;2022-10-30T17:36:11;17.20;99.90
66094;DHT22;52876;49.394;10.892;2022-10-30T22:25:55;11.80;99.90
66094;DHT22;52876;49.394;10.892;2022-10-30T22:28:23;13.30;99.90
